Time;durP1;ratioP1;P1;durP2;ratioP2;P2;SDS_P1;SDS_P2;PMS_P1;PMS_P2;Temp;Humidity;BMP_temperature;BMP_pressure;BME280_temperature;BME280_humidity;BME280_pressure;Samples;Min_cycle;Max_cycle;Signal;HPM_P1;HPM_P2
2021/05/26 00:00:32;;;;;;;0.15;0.15;;;10.60;99.90;;;;;;4412485;32;20063;-89
2021/05/26 00:02:57;;;;;;;9.70;0.75;;;10.70;99.90;;;;;;4415700;32;20129;-87
2021/05/26 00:05:24;;;;;;;0.30;0.30;;;10.60;99.90;;;;;;4414758;32;20082;-87
2021/05/26 00:07:50;;;;;;;0.30;0.30;;;10.60;99.90;;;;;;4415056;32;20079;-86
2021/05/26 00:10:16;;;;;;;0.28;0.28;;;10.60;99.90;;;;;;4415398;32;20397;-88
2021/05/26 00:12:43;;;;;;;0.30;0.30;;;10.60;99.90;;;;;;4415089;32;20061;-87
2021/05/26 00:15:09;;;;;;;0.15;0.15;;;10.60;99.90;;;;;;4417604;32;20129;-89
2021/05/26 00:17:35;;;;;;;0.17;0.17;;;10.70;99.90;;;;;;4411512;32;20047;-87
2021/05/26 00:20:01;;;;;;;0.20;0.20;;;10.70;99.90;;;;;;4401884;32;20579;-87
2021/05/26 00:22:27;;;;;;;0.47;0.47;;;10.70;99.90;;;;;;4402164;32;20071;-87
2021/05/26 00:24:53;;;;;;;0.20;0.20;;;10.70;99.90;;;;;;4402624;32;20078;-86
2021/05/26 00:27:19;;;;;;;0.20;0.20;;;10.70;99.90;;;;;;4412968;32;20507;-87
2021/05/26 00:29:46;;;;;;;0.30;0.30;;;10.80;99.90;;;;;;4417322;32;20065;-87
2021/05/26 00:32:12;;;;;;;0.20;0.20;;;10.80;99.90;;;;;;4416859;32;20062;-87
2021/05/26 00:34:37;;;;;;;0.20;0.20;;;10.70;99.90;;;;;;4416420;32;20085;-87
2021/05/26 00:37:04;;;;;;;0.28;0.28;;;10.60;99.90;;;;;;4417500;32;20074;-87
2021/05/26 00:39:30;;;;;;;0.30;0.30;;;10.60;99.90;;;;;;4417482;32;20389;-89
2021/05/26 00:41:55;;;;;;;0.40;0.40;;;10.70;99.90;;;;;;4417033;32;20073;-87
2021/05/26 00:44:21;;;;;;;0.30;0.30;;;10.70;99.90;;;;;;4416932;32;20066;-87
2021/05/26 00:46:49;;;;;;;0.30;0.30;;;10.60;99.90;;;;;;4416309;32;20536;-87
2021/05/26 00:49:15;;;;;;;0.22;0.22;;;10.50;99.90;;;;;;4416794;32;20074;-88
2021/05/26 00:51:41;;;;;;;0.22;0.22;;;10.60;99.90;;;;;;4417013;32;20058;-87
2021/05/26 00:54:07;;;;;;;0.30;0.30;;;10.50;99.90;;;;;;4416912;32;20080;-88
2021/05/26 00:56:33;;;;;;;0.30;0.30;;;10.60;99.90;;;;;;4416917;32;20433;-88
2021/05/26 00:59:01;;;;;;;0.20;0.20;;;10.60;99.90;;;;;;4416710;32;20066;-88
2021/05/26 01:01:27;;;;;;;0.20;0.20;;;10.60;99.90;;;;;;4416609;32;20134;-89
2021/05/26 01:03:55;;;;;;;0.30;0.30;;;10.60;99.90;;;;;;4416770;32;20534;-87
2021/05/26 01:06:21;;;;;;;0.20;0.20;;;10.50;99.90;;;;;;4416704;32;20487;-87
2021/05/26 01:08:46;;;;;;;0.20;0.20;;;10.50;99.90;;;;;;4417014;32;20066;-87
2021/05/26 01:11:12;;;;;;;0.20;0.20;;;10.60;99.90;;;;;;4416757;32;20116;-87
2021/05/26 01:13:37;;;;;;;0.40;0.40;;;10.60;99.90;;;;;;4416137;32;20116;-88
2021/05/26 01:16:03;;;;;;;0.25;0.25;;;10.50;99.90;;;;;;4415995;32;20062;-88
2021/05/26 01:18:32;;;;;;;0.50;0.50;;;10.50;99.90;;;;;;4415717;32;20065;-90
2021/05/26 01:21:00;;;;;;;0.20;0.20;;;10.60;99.90;;;;;;4417358;32;20073;-87
2021/05/26 01:23:26;;;;;;;0.45;0.40;;;10.40;99.90;;;;;;4417415;32;20614;-87
2021/05/26 01:25:55;;;;;;;0.75;0.35;;;10.50;99.90;;;;;;4416154;32;20519;-88
2021/05/26 01:28:22;;;;;;;0.77;0.60;;;10.50;99.90;;;;;;4416129;32;20469;-90
2021/05/26 01:30:49;;;;;;;0.30;0.30;;;10.60;99.90;;;;;;4415687;32;20499;-88
2021/05/26 01:33:15;;;;;;;0.28;0.28;;;10.60;99.90;;;;;;4416830;32;20078;-89
2021/05/26 01:35:42;;;;;;;0.30;0.30;;;10.50;99.90;;;;;;4416543;32;20528;-89
2021/05/26 01:38:16;;;;;;;0.22;0.22;;;10.40;99.90;;;;;;4416115;32;20516;-91
2021/05/26 01:40:41;;;;;;;0.37;0.37;;;10.40;99.90;;;;;;4415712;32;20420;-87
2021/05/26 01:43:07;;;;;;;0.30;0.30;;;10.40;99.90;;;;;;4415337;32;20066;-88
2021/05/26 01:45:33;;;;;;;0.28;0.28;;;10.40;99.90;;;;;;4415393;32;20084;-88
2021/05/26 01:47:58;;;;;;;0.22;0.22;;;10.50;99.90;;;;;;4415690;32;20070;-87
2021/05/26 01:50:24;;;;;;;0.30;0.30;;;10.40;99.90;;;;;;4417354;32;20070;-88
2021/05/26 01:52:52;;;;;;;0.22;0.22;;;10.40;99.90;;;;;;4416784;32;20069;-86
2021/05/26 01:55:19;;;;;;;0.20;0.20;;;10.50;99.90;;;;;;4416239;32;20556;-88
2021/05/26 01:57:45;;;;;;;0.43;0.43;;;10.60;99.90;;;;;;4415521;32;20455;-85
2021/05/26 02:00:13;;;;;;;0.28;0.28;;;10.50;99.90;;;;;;4416831;32;20061;-88
2021/05/26 02:02:42;;;;;;;0.37;0.37;;;10.50;99.90;;;;;;4416515;32;20085;-89
2021/05/26 02:05:08;;;;;;;0.30;0.30;;;10.50;99.90;;;;;;4416596;32;20457;-88
2021/05/26 02:07:35;;;;;;;0.32;0.32;;;10.50;99.90;;;;;;4415976;32;20066;-88
2021/05/26 02:10:01;;;;;;;0.47;0.47;;;10.50;99.90;;;;;;4415325;32;20083;-87
2021/05/26 02:12:32;;;;;;;0.30;0.30;;;10.50;99.90;;;;;;4410615;32;20062;-87
2021/05/26 02:14:59;;;;;;;0.20;0.20;;;10.50;99.90;;;;;;4400546;32;20106;-88
2021/05/26 02:17:25;;;;;;;1.25;0.77;;;10.50;99.90;;;;;;4410060;32;20515;-88
2021/05/26 02:19:51;;;;;;;0.20;0.20;;;10.60;99.90;;;;;;4416099;32;20069;-86
2021/05/26 02:22:22;;;;;;;0.35;0.35;;;10.50;99.90;;;;;;4416129;32;20491;-90
2021/05/26 02:24:49;;;;;;;0.20;0.20;;;10.50;99.90;;;;;;4416310;32;20087;-87
2021/05/26 02:27:16;;;;;;;0.20;0.20;;;10.50;99.90;;;;;;4415860;32;20124;-89
2021/05/26 02:29:42;;;;;;;0.60;0.50;;;10.50;99.90;;;;;;4415302;32;20512;-89
2021/05/26 02:32:09;;;;;;;0.20;0.20;;;10.40;99.90;;;;;;4415079;32;20068;-88
2021/05/26 02:34:35;;;;;;;0.30;0.30;;;10.50;99.90;;;;;;4414405;32;20122;-89
2021/05/26 02:37:02;;;;;;;0.20;0.20;;;10.40;99.90;;;;;;4415047;32;20069;-89
2021/05/26 02:39:27;;;;;;;0.40;0.40;;;10.50;99.90;;;;;;4416552;32;20553;-88
2021/05/26 02:41:53;;;;;;;0.30;0.30;;;10.50;99.90;;;;;;4416099;32;20085;-88
2021/05/26 02:44:19;;;;;;;0.20;0.20;;;10.50;99.90;;;;;;4415637;32;20062;-88
2021/05/26 02:46:44;;;;;;;0.20;0.20;;;10.50;99.90;;;;;;4413982;32;20069;-87
2021/05/26 02:49:11;;;;;;;0.30;0.30;;;10.40;99.90;;;;;;4416181;32;20057;-90
2021/05/26 02:51:37;;;;;;;0.60;0.43;;;10.40;99.90;;;;;;4416490;32;20086;-88
2021/05/26 02:54:04;;;;;;;0.20;0.20;;;10.50;99.90;;;;;;4416481;32;20062;-87
2021/05/26 02:56:30;;;;;;;0.43;0.43;;;10.40;99.90;;;;;;4415866;32;20440;-88
2021/05/26 02:58:55;;;;;;;0.30;0.30;;;10.50;99.90;;;;;;4415168;32;20077;-88
2021/05/26 03:01:21;;;;;;;0.62;0.62;;;10.50;99.90;;;;;;4415480;32;20392;-88
2021/05/26 03:03:51;;;;;;;0.65;0.65;;;10.60;99.90;;;;;;4415434;32;20065;-88
2021/05/26 03:06:16;;;;;;;0.77;0.50;;;10.60;99.90;;;;;;4414888;32;20157;-87
2021/05/26 03:08:42;;;;;;;0.20;0.20;;;10.50;99.90;;;;;;4415255;32;20069;-88
2021/05/26 03:11:08;;;;;;;0.30;0.30;;;10.60;99.90;;;;;;4415148;32;20141;-87
2021/05/26 03:13:34;;;;;;;0.20;0.20;;;10.50;99.90;;;;;;4414582;32;20054;-89
2021/05/26 03:16:02;;;;;;;0.30;0.30;;;10.60;99.90;;;;;;4415511;32;20095;-89
2021/05/26 03:18:28;;;;;;;0.20;0.20;;;10.50;99.90;;;;;;4414168;32;20082;-88
2021/05/26 03:20:54;;;;;;;0.20;0.20;;;10.50;99.90;;;;;;4414519;32;20058;-88
2021/05/26 03:23:20;;;;;;;0.20;0.20;;;10.50;99.90;;;;;;4415199;32;20086;-87
2021/05/26 03:25:47;;;;;;;0.30;0.30;;;10.60;99.90;;;;;;4414732;32;20591;-90
2021/05/26 03:28:14;;;;;;;0.20;0.20;;;10.60;99.90;;;;;;4414651;32;20082;-88
2021/05/26 03:30:40;;;;;;;0.30;0.30;;;10.50;99.90;;;;;;4414403;32;20057;-88
2021/05/26 03:33:07;;;;;;;1.75;0.95;;;10.60;99.90;;;;;;4415483;32;20086;-88
2021/05/26 03:35:33;;;;;;;0.20;0.20;;;10.60;99.90;;;;;;4415081;32;20074;-88
2021/05/26 03:37:58;;;;;;;0.30;0.30;;;10.60;99.90;;;;;;4415637;32;20061;-88
2021/05/26 03:40:24;;;;;;;0.85;0.60;;;10.70;99.90;;;;;;4414625;32;20079;-89
2021/05/26 03:42:49;;;;;;;0.30;0.30;;;10.70;99.90;;;;;;4415229;32;20088;-87
2021/05/26 03:45:15;;;;;;;0.20;0.20;;;10.70;99.90;;;;;;4415017;32;20058;-88
2021/05/26 03:47:41;;;;;;;0.60;0.60;;;10.60;99.90;;;;;;4417117;32;20061;-87
2021/05/26 03:50:16;;;;;;;0.50;0.50;;;10.70;99.90;;;;;;4417567;32;20468;-86
2021/05/26 03:52:43;;;;;;;0.30;0.30;;;10.60;99.90;;;;;;4417993;32;20065;-86
2021/05/26 03:55:12;;;;;;;0.20;0.20;;;10.60;99.90;;;;;;4417530;32;20089;-88
2021/05/26 03:57:38;;;;;;;0.40;0.40;;;10.60;99.90;;;;;;4417175;32;20392;-86
2021/05/26 04:00:05;;;;;;;0.40;0.40;;;10.60;99.90;;;;;;4416687;32;20169;-89
2021/05/26 04:02:31;;;;;;;0.25;0.25;;;10.70;99.90;;;;;;4417162;32;20069;-87
2021/05/26 04:04:57;;;;;;;0.20;0.20;;;10.70;99.90;;;;;;4416667;32;20074;-88
2021/05/26 04:07:22;;;;;;;0.30;0.30;;;10.70;99.90;;;;;;4417871;32;20057;-88
2021/05/26 04:09:48;;;;;;;0.20;0.20;;;10.60;99.90;;;;;;4418423;32;20093;-88
2021/05/26 04:12:13;;;;;;;0.20;0.20;;;10.60;99.90;;;;;;4417466;32;20120;-88
2021/05/26 04:14:39;;;;;;;0.20;0.20;;;10.70;99.90;;;;;;4418005;32;20065;-90
2021/05/26 04:17:05;;;;;;;0.30;0.30;;;10.70;99.90;;;;;;4416602;32;20511;-88
2021/05/26 04:19:30;;;;;;;1.27;0.50;;;10.70;99.90;;;;;;4416613;32;20070;-89
2021/05/26 04:21:58;;;;;;;0.45;0.45;;;10.80;99.90;;;;;;4407794;32;20094;-88
2021/05/26 04:24:24;;;;;;;0.40;0.40;;;10.90;99.90;;;;;;4414781;32;20208;-87
2021/05/26 04:26:50;;;;;;;4.95;0.70;;;10.90;99.90;;;;;;4413519;32;20073;-87
2021/05/26 04:29:18;;;;;;;0.30;0.30;;;10.80;99.90;;;;;;4414411;32;20082;-87
2021/05/26 04:31:46;;;;;;;0.28;0.28;;;10.80;99.90;;;;;;4415782;32;20062;-88
2021/05/26 04:34:12;;;;;;;0.20;0.20;;;10.80;99.90;;;;;;4415696;32;20428;-87
2021/05/26 04:36:37;;;;;;;0.30;0.30;;;10.90;99.90;;;;;;4415592;32;20077;-86
2021/05/26 04:39:04;;;;;;;0.40;0.40;;;10.90;99.90;;;;;;4414167;32;20127;-88
2021/05/26 04:41:31;;;;;;;0.20;0.20;;;10.80;99.90;;;;;;4416547;32;20121;-89
2021/05/26 04:43:57;;;;;;;2.65;1.42;;;10.80;99.90;;;;;;4416054;32;20061;-88
2021/05/26 04:46:22;;;;;;;0.22;0.22;;;10.90;99.90;;;;;;4415719;32;20085;-86
2021/05/26 04:48:48;;;;;;;0.20;0.20;;;11.00;99.90;;;;;;4416689;32;20172;-87
2021/05/26 04:51:14;;;;;;;0.22;0.22;;;11.00;99.90;;;;;;4417059;32;20069;-88
2021/05/26 04:53:40;;;;;;;0.30;0.30;;;11.00;99.90;;;;;;4416749;32;20074;-86
2021/05/26 04:56:05;;;;;;;0.40;0.40;;;11.10;99.90;;;;;;4417051;32;20499;-88
2021/05/26 04:58:31;;;;;;;0.40;0.40;;;11.10;99.90;;;;;;4420428;32;20073;-89
2021/05/26 05:01:03;;;;;;;0.25;0.25;;;11.20;99.90;;;;;;4411228;32;20082;-91
2021/05/26 05:03:29;;;;;;;0.47;0.47;;;11.20;99.90;;;;;;4409483;32;20061;-88
2021/05/26 05:05:54;;;;;;;0.20;0.20;;;11.30;99.90;;;;;;4416141;32;20120;-87
2021/05/26 05:08:21;;;;;;;0.40;0.40;;;11.30;99.90;;;;;;4413763;32;20090;-89
2021/05/26 05:10:46;;;;;;;0.40;0.40;;;11.30;99.90;;;;;;4414371;32;20089;-88
2021/05/26 05:13:13;;;;;;;0.40;0.40;;;11.20;99.90;;;;;;4412958;32;20062;-86
2021/05/26 05:15:39;;;;;;;0.30;0.30;;;11.20;99.90;;;;;;4416243;32;20070;-88
2021/05/26 05:18:05;;;;;;;0.30;0.30;;;11.20;99.90;;;;;;4397681;32;20646;-89
2021/05/26 05:20:30;;;;;;;0.62;0.62;;;11.20;99.90;;;;;;4410406;32;20090;-89
2021/05/26 05:22:56;;;;;;;0.20;0.20;;;11.30;99.90;;;;;;4412198;32;20102;-87
2021/05/26 05:25:22;;;;;;;0.40;0.40;;;11.40;99.90;;;;;;4407252;32;20077;-88
2021/05/26 05:27:49;;;;;;;1.95;0.85;;;11.40;99.90;;;;;;4395266;32;20896;-89
2021/05/26 05:30:15;;;;;;;0.40;0.40;;;11.50;99.90;;;;;;4402047;32;20065;-89
2021/05/26 05:32:41;;;;;;;0.35;0.35;;;11.60;99.90;;;;;;4395407;32;20120;-90
2021/05/26 05:35:13;;;;;;;0.45;0.45;;;11.60;99.90;;;;;;4407534;32;20196;-88
2021/05/26 05:37:40;;;;;;;0.22;0.22;;;11.60;99.90;;;;;;4409171;32;20105;-88
2021/05/26 05:40:09;;;;;;;0.40;0.40;;;11.70;99.90;;;;;;4404951;32;20406;-91
2021/05/26 05:42:36;;;;;;;0.47;0.47;;;11.70;99.90;;;;;;4402717;32;20063;-90
2021/05/26 05:45:04;;;;;;;0.20;0.20;;;11.70;99.90;;;;;;4409510;32;20107;-87
2021/05/26 05:47:29;;;;;;;0.40;0.40;;;11.70;99.90;;;;;;4409504;32;20453;-88
2021/05/26 05:49:55;;;;;;;0.30;0.30;;;11.90;99.90;;;;;;4414067;32;20199;-89
2021/05/26 05:52:21;;;;;;;3.25;0.50;;;11.90;99.90;;;;;;4411460;32;20061;-87
2021/05/26 05:54:49;;;;;;;0.50;0.50;;;12.00;99.90;;;;;;4411473;32;20085;-87
2021/05/26 05:57:15;;;;;;;0.20;0.20;;;12.00;99.90;;;;;;4404561;32;20441;-90
2021/05/26 05:59:40;;;;;;;0.22;0.22;;;12.00;99.90;;;;;;4413443;32;20436;-87
2021/05/26 06:02:06;;;;;;;0.30;0.30;;;12.10;99.90;;;;;;4404094;32;20638;-88
2021/05/26 06:04:32;;;;;;;0.20;0.20;;;12.10;99.90;;;;;;4406767;32;20483;-89
2021/05/26 06:06:58;;;;;;;0.60;0.50;;;12.20;99.90;;;;;;4414481;32;20057;-87
2021/05/26 06:09:23;;;;;;;0.30;0.30;;;12.20;99.90;;;;;;4407141;32;20066;-87
2021/05/26 06:11:49;;;;;;;0.30;0.30;;;12.20;99.90;;;;;;4408267;32;20232;-88
2021/05/26 06:14:17;;;;;;;0.22;0.22;;;12.20;99.90;;;;;;4408607;32;20156;-88
2021/05/26 06:16:42;;;;;;;0.40;0.40;;;12.20;99.90;;;;;;4412717;32;20337;-89
2021/05/26 06:19:09;;;;;;;0.35;0.35;;;12.10;99.90;;;;;;4411996;32;20046;-88
2021/05/26 06:21:35;;;;;;;0.30;0.30;;;12.10;99.90;;;;;;4413467;32;20086;-87
2021/05/26 06:24:01;;;;;;;0.68;0.60;;;12.10;99.90;;;;;;4411469;32;20667;-86
2021/05/26 06:26:32;;;;;;;0.37;0.37;;;12.20;99.90;;;;;;4412155;32;20066;-88
2021/05/26 06:28:59;;;;;;;0.30;0.30;;;12.30;99.90;;;;;;4415354;32;20090;-87
2021/05/26 06:31:26;;;;;;;0.55;0.50;;;12.40;99.90;;;;;;4410973;32;20057;-89
2021/05/26 06:33:52;;;;;;;0.40;0.40;;;12.50;99.90;;;;;;4409132;32;20070;-88
2021/05/26 06:36:17;;;;;;;0.30;0.30;;;12.60;99.90;;;;;;4408136;32;20082;-87
2021/05/26 06:38:43;;;;;;;0.30;0.30;;;12.80;99.90;;;;;;4411169;32;20516;-90
2021/05/26 06:41:10;;;;;;;0.68;0.52;;;12.80;99.90;;;;;;4412144;32;20073;-87
2021/05/26 06:43:37;;;;;;;0.30;0.30;;;12.80;99.90;;;;;;4407917;32;20082;-87
2021/05/26 06:46:03;;;;;;;0.35;0.35;;;12.80;99.90;;;;;;4405548;32;20063;-91
2021/05/26 06:48:29;;;;;;;0.20;0.20;;;12.90;99.90;;;;;;4408846;32;20572;-89
2021/05/26 06:50:54;;;;;;;0.30;0.30;;;12.90;99.90;;;;;;4412032;32;20077;-87
2021/05/26 06:53:20;;;;;;;0.35;0.35;;;12.80;99.90;;;;;;4410652;32;20590;-88
2021/05/26 06:55:47;;;;;;;0.30;0.30;;;12.90;99.90;;;;;;4410310;32;20078;-88
2021/05/26 06:58:12;;;;;;;0.22;0.22;;;12.90;99.90;;;;;;4404661;32;20113;-87
2021/05/26 07:00:41;;;;;;;0.43;0.43;;;13.10;99.90;;;;;;4412286;32;20074;-89
2021/05/26 07:03:10;;;;;;;0.40;0.40;;;13.10;99.90;;;;;;4406829;32;20070;-87
2021/05/26 07:05:36;;;;;;;0.37;0.37;;;13.20;99.90;;;;;;4410503;32;20230;-87
2021/05/26 07:08:02;;;;;;;0.20;0.20;;;13.10;99.90;;;;;;4409563;32;20090;-89
2021/05/26 07:10:27;;;;;;;0.40;0.35;;;13.10;99.90;;;;;;4414193;32;20166;-88
2021/05/26 07:12:53;;;;;;;0.40;0.40;;;13.10;99.90;;;;;;4412188;32;20086;-86
2021/05/26 07:15:19;;;;;;;0.93;0.52;;;13.20;99.90;;;;;;4410511;32;20130;-86
2021/05/26 07:17:49;;;;;;;0.20;0.20;;;13.20;99.90;;;;;;4412187;32;20134;-87
2021/05/26 07:20:15;;;;;;;0.40;0.40;;;13.30;99.90;;;;;;4413286;32;20070;-86
2021/05/26 07:22:42;;;;;;;0.30;0.30;;;13.20;99.90;;;;;;4412939;32;20190;-86
2021/05/26 07:25:09;;;;;;;1.58;0.50;;;13.20;99.90;;;;;;4407257;32;20078;-85
2021/05/26 07:27:36;;;;;;;0.30;0.30;;;13.20;99.90;;;;;;4409096;32;20458;-85
2021/05/26 07:30:03;;;;;;;0.73;0.73;;;13.20;99.90;;;;;;4415598;32;20091;-86
2021/05/26 07:32:28;;;;;;;0.20;0.20;;;13.20;99.90;;;;;;4411907;32;20130;-86
2021/05/26 07:34:55;;;;;;;0.30;0.30;;;13.20;99.90;;;;;;4414815;32;20061;-87
2021/05/26 07:37:22;;;;;;;0.20;0.20;;;13.30;99.90;;;;;;4417442;32;20081;-87
2021/05/26 07:39:48;;;;;;;0.30;0.30;;;13.30;99.90;;;;;;4413081;32;20412;-86
2021/05/26 07:42:15;;;;;;;0.20;0.20;;;13.30;99.90;;;;;;4411375;32;20432;-86
2021/05/26 07:44:41;;;;;;;14.80;0.52;;;13.40;99.90;;;;;;4412957;32;20623;-86
2021/05/26 07:47:08;;;;;;;1.75;1.37;;;13.50;99.90;;;;;;4413236;32;20081;-88
2021/05/26 07:49:34;;;;;;;0.40;0.40;;;13.70;99.90;;;;;;4412037;32;20192;-86
2021/05/26 07:52:04;;;;;;;1.60;0.73;;;14.00;99.90;;;;;;4410779;32;20127;-87
2021/05/26 07:54:30;;;;;;;0.22;0.22;;;14.30;99.90;;;;;;4413383;32;20054;-89
2021/05/26 07:56:59;;;;;;;0.40;0.40;;;14.50;99.90;;;;;;4408932;32;20069;-86
2021/05/26 07:59:26;;;;;;;0.30;0.30;;;14.50;99.90;;;;;;4403910;32;20173;-87
2021/05/26 08:01:52;;;;;;;0.40;0.40;;;14.50;99.90;;;;;;4410702;32;20058;-88
2021/05/26 08:04:17;;;;;;;0.20;0.20;;;14.20;99.90;;;;;;4415986;32;20062;-87
2021/05/26 08:06:43;;;;;;;0.20;0.20;;;14.00;99.90;;;;;;4404984;32;20460;-87
2021/05/26 08:09:09;;;;;;;0.40;0.40;;;13.80;99.90;;;;;;4412011;32;20085;-88
2021/05/26 08:11:34;;;;;;;0.20;0.20;;;13.80;99.90;;;;;;4414173;32;20112;-88
2021/05/26 08:14:00;;;;;;;0.20;0.20;;;13.80;99.90;;;;;;4411927;32;20584;-88
2021/05/26 08:16:27;;;;;;;0.30;0.30;;;13.80;99.90;;;;;;4414499;32;20090;-87
2021/05/26 08:18:53;;;;;;;0.40;0.40;;;13.80;99.90;;;;;;4412094;32;20527;-87
2021/05/26 08:21:19;;;;;;;3.72;1.65;;;13.90;99.90;;;;;;4413517;32;20058;-90
2021/05/26 08:23:47;;;;;;;0.40;0.40;;;13.90;99.90;;;;;;4409863;32;20728;-87
2021/05/26 08:26:17;;;;;;;0.65;0.50;;;14.00;99.90;;;;;;4414967;32;20086;-86
2021/05/26 08:28:43;;;;;;;0.50;0.50;;;13.90;99.90;;;;;;4414597;32;20128;-87
2021/05/26 08:31:14;;;;;;;0.20;0.20;;;13.80;99.90;;;;;;4396167;32;20098;-87
2021/05/26 08:33:44;;;;;;;0.32;0.30;;;13.90;99.90;;;;;;4413210;32;20066;-87
2021/05/26 08:36:11;;;;;;;0.23;0.23;;;13.90;99.90;;;;;;4415024;32;20523;-87
2021/05/26 08:38:38;;;;;;;0.20;0.20;;;13.90;99.90;;;;;;4412148;32;20070;-88
2021/05/26 08:41:06;;;;;;;0.40;0.40;;;13.90;99.90;;;;;;4414512;32;20083;-87
2021/05/26 08:43:34;;;;;;;0.20;0.20;;;13.90;99.90;;;;;;4409043;32;20070;-88
2021/05/26 08:46:03;;;;;;;0.30;0.30;;;14.00;99.90;;;;;;4408715;32;20137;-87
2021/05/26 08:48:30;;;;;;;0.35;0.35;;;14.20;99.90;;;;;;4414235;32;20089;-87
2021/05/26 08:50:56;;;;;;;0.30;0.30;;;14.20;99.90;;;;;;4411705;32;20052;-88
2021/05/26 08:53:22;;;;;;;0.20;0.20;;;14.40;99.90;;;;;;4412877;32;20070;-85
2021/05/26 08:55:48;;;;;;;0.22;0.22;;;14.50;99.90;;;;;;4411349;32;20058;-87
2021/05/26 08:58:13;;;;;;;0.20;0.20;;;14.40;99.90;;;;;;4416442;32;20482;-87
2021/05/26 09:00:39;;;;;;;0.40;0.30;;;14.30;99.90;;;;;;4414434;32;20124;-87
2021/05/26 09:03:05;;;;;;;0.20;0.20;;;14.50;99.90;;;;;;4415493;32;20082;-87
2021/05/26 09:05:34;;;;;;;0.30;0.30;;;14.80;99.90;;;;;;4416012;32;20244;-87
2021/05/26 09:08:18;;;;;;;0.40;0.40;;;15.10;99.90;;;;;;4409648;32;20121;-85
2021/05/26 09:11:02;;;;;;;0.20;0.20;;;14.90;99.90;;;;;;4395836;32;20078;-86
2021/05/26 09:13:38;;;;;;;0.40;0.32;;;14.80;99.90;;;;;;4411830;32;20125;-87
2021/05/26 09:16:07;;;;;;;0.30;0.30;;;14.50;99.90;;;;;;4412547;32;20046;-86
2021/05/26 09:18:54;;;;;;;0.40;0.40;;;14.50;99.90;;;;;;4411195;32;20054;-86
2021/05/26 09:21:44;;;;;;;0.20;0.20;;;14.50;99.90;;;;;;4413015;32;20066;-86
2021/05/26 09:24:28;;;;;;;1.02;1.00;;;14.40;99.90;;;;;;4407350;32;20070;-85
2021/05/26 09:27:01;;;;;;;0.30;0.30;;;14.30;99.90;;;;;;4414072;32;20137;-86
2021/05/26 09:29:32;;;;;;;0.20;0.20;;;14.30;99.90;;;;;;4410085;32;20085;-86
2021/05/26 09:32:21;;;;;;;0.30;0.30;;;14.20;99.90;;;;;;4410878;32;20111;-87
2021/05/26 09:34:56;;;;;;;0.30;0.30;;;14.20;99.90;;;;;;4410751;32;20053;-87
2021/05/26 09:37:24;;;;;;;0.20;0.20;;;14.10;99.90;;;;;;4411607;32;20187;-86
2021/05/26 09:39:55;;;;;;;0.40;0.40;;;14.20;99.90;;;;;;4406513;32;116528;-86
2021/05/26 09:42:32;;;;;;;0.40;0.40;;;14.30;99.90;;;;;;4405832;32;20069;-86
2021/05/26 09:45:08;;;;;;;0.20;0.20;;;14.50;99.90;;;;;;4406427;32;20133;-87
2021/05/26 09:47:38;;;;;;;0.50;0.50;;;14.70;99.90;;;;;;4395695;32;20093;-87
2021/05/26 09:50:25;;;;;;;0.30;0.30;;;14.80;99.90;;;;;;4413723;32;20083;-87
2021/05/26 09:53:03;;;;;;;0.32;0.32;;;14.90;99.90;;;;;;4402024;32;20603;-88
2021/05/26 09:55:37;;;;;;;0.30;0.30;;;15.00;99.90;;;;;;4397080;32;20065;-88
2021/05/26 09:58:05;;;;;;;2.75;0.37;;;15.00;99.90;;;;;;4411825;32;20067;-88
2021/05/26 10:00:32;;;;;;;0.20;0.20;;;15.10;99.90;;;;;;4411800;32;20058;-85
2021/05/26 10:02:58;;;;;;;0.20;0.20;;;15.10;99.90;;;;;;4409881;32;20520;-88
2021/05/26 10:05:25;;;;;;;0.57;0.57;;;14.90;99.90;;;;;;4408615;32;20097;-86
2021/05/26 10:07:55;;;;;;;0.30;0.30;;;14.90;99.90;;;;;;4408031;32;20062;-86
2021/05/26 10:10:23;;;;;;;0.30;0.30;;;14.80;99.90;;;;;;4412008;32;20073;-86
2021/05/26 10:12:52;;;;;;;0.20;0.20;;;14.60;99.90;;;;;;4405344;32;20397;-87
2021/05/26 10:15:22;;;;;;;0.35;0.35;;;14.50;99.90;;;;;;4398720;32;20073;-88
2021/05/26 10:17:50;;;;;;;0.50;0.50;;;14.40;99.90;;;;;;4411315;32;20073;-88
2021/05/26 10:20:18;;;;;;;0.30;0.30;;;14.20;99.90;;;;;;4414267;32;20424;-87
2021/05/26 10:22:44;;;;;;;0.20;0.20;;;14.00;99.90;;;;;;4406837;32;20076;-88
2021/05/26 10:25:13;;;;;;;0.30;0.30;;;13.90;99.90;;;;;;4410810;32;20582;-87
2021/05/26 10:27:44;;;;;;;1.10;0.80;;;14.10;99.90;;;;;;4405588;32;20062;-90
2021/05/26 10:30:11;;;;;;;0.47;0.47;;;14.50;99.90;;;;;;4411601;32;20097;-89
2021/05/26 10:32:54;;;;;;;0.43;0.40;;;14.80;99.90;;;;;;4410994;32;20078;-90
2021/05/26 10:35:22;;;;;;;0.93;0.37;;;15.00;99.90;;;;;;4411084;32;20463;-89
2021/05/26 10:37:58;;;;;;;0.25;0.25;;;15.20;99.90;;;;;;4414609;32;20078;-90
2021/05/26 10:40:34;;;;;;;0.20;0.20;;;15.10;99.90;;;;;;4411398;32;20093;-88
2021/05/26 10:43:18;;;;;;;0.37;0.37;;;15.20;99.90;;;;;;4402007;32;20526;-90
2021/05/26 10:45:46;;;;;;;0.30;0.30;;;15.20;99.90;;;;;;4410232;32;20077;-89
2021/05/26 10:48:12;;;;;;;0.30;0.30;;;15.30;99.90;;;;;;4410506;32;20126;-90
2021/05/26 10:50:55;;;;;;;0.40;0.40;;;15.60;99.90;;;;;;4413862;32;20530;-89
2021/05/26 10:53:23;;;;;;;0.37;0.37;;;15.70;99.90;;;;;;4413794;32;20137;-87
2021/05/26 10:55:51;;;;;;;0.43;0.40;;;15.60;99.90;;;;;;4413691;32;20633;-87
2021/05/26 10:58:20;;;;;;;0.40;0.40;;;15.20;99.90;;;;;;4406270;32;20075;-88
2021/05/26 11:01:08;;;;;;;0.30;0.30;;;15.00;99.90;;;;;;4399223;32;20392;-85
2021/05/26 11:03:37;;;;;;;0.20;0.20;;;15.20;99.90;;;;;;4398570;32;20061;-87
2021/05/26 11:06:27;;;;;;;0.30;0.30;;;15.60;99.90;;;;;;4405883;32;20070;-87
2021/05/26 11:08:55;;;;;;;0.28;0.28;;;16.50;99.90;;;;;;4412094;32;20058;-89
2021/05/26 11:11:24;;;;;;;0.30;0.30;;;16.80;99.90;;;;;;4408679;32;20065;-86
2021/05/26 11:14:03;;;;;;;0.40;0.40;;;16.70;99.90;;;;;;4407822;32;20490;-87
2021/05/26 11:16:53;;;;;;;0.20;0.20;;;16.80;99.90;;;;;;4407593;32;20093;-89
2021/05/26 11:19:28;;;;;;;0.28;0.28;;;16.80;99.90;;;;;;4417429;32;20117;-90
2021/05/26 11:22:03;;;;;;;;;;;17.20;99.90;;;;;;4414923;32;20069;-88
2021/05/26 11:24:33;;;;;;;0.40;0.40;;;17.70;99.90;;;;;;4409602;32;19948;-87
2021/05/26 11:27:00;;;;;;;0.20;0.20;;;17.90;99.90;;;;;;4411874;32;20061;-87
2021/05/26 11:29:32;;;;;;;0.30;0.30;;;18.20;99.70;;;;;;4412998;32;20062;-85
2021/05/26 11:32:16;;;;;;;0.20;0.20;;;18.20;98.80;;;;;;4414041;32;20066;-86
2021/05/26 11:34:44;;;;;;;0.10;0.10;;;18.40;98.60;;;;;;4399631;32;20393;-85
2021/05/26 11:37:11;;;;;;;0.95;0.68;;;18.90;98.60;;;;;;4399083;32;20151;-87
2021/05/26 11:39:38;;;;;;;0.30;0.22;;;19.60;97.60;;;;;;4398539;32;20165;-88
2021/05/26 11:42:26;;;;;;;0.40;0.40;;;19.90;97.00;;;;;;4400513;32;20070;-87
2021/05/26 11:44:55;;;;;;;0.30;0.30;;;19.30;96.80;;;;;;4397631;32;20054;-87
2021/05/26 11:47:30;;;;;;;1.62;0.70;;;19.60;96.40;;;;;;4396581;32;20082;-87
2021/05/26 11:50:00;;;;;;;0.20;0.20;;;19.20;96.30;;;;;;4400370;32;20088;-87
2021/05/26 11:52:26;;;;;;;0.20;0.20;;;19.60;96.00;;;;;;4399166;32;20062;-87
2021/05/26 11:55:01;;;;;;;0.45;0.32;;;20.30;94.00;;;;;;4397618;32;20105;-85
2021/05/26 11:57:36;;;;;;;0.15;0.15;;;20.50;93.20;;;;;;4397907;32;20597;-88
2021/05/26 12:00:05;;;;;;;0.28;0.28;;;20.50;93.60;;;;;;4410689;32;20109;-88
2021/05/26 12:02:32;;;;;;;0.10;0.10;;;20.50;92.80;;;;;;4405712;32;20058;-86
2021/05/26 12:04:58;;;;;;;0.20;0.20;;;20.70;91.60;;;;;;4401610;32;20129;-86
2021/05/26 12:07:29;;;;;;;0.10;0.10;;;21.20;91.10;;;;;;4407869;32;20452;-86
2021/05/26 12:10:00;;;;;;;0.20;0.20;;;21.30;90.00;;;;;;4414124;32;20506;-88
2021/05/26 12:12:27;;;;;;;0.20;0.20;;;20.50;90.50;;;;;;4415676;32;20121;-88
2021/05/26 12:14:54;;;;;;;0.30;0.30;;;19.90;91.20;;;;;;4418021;32;20488;-88
2021/05/26 12:17:24;;;;;;;0.20;0.20;;;20.30;89.50;;;;;;4403745;32;20359;-87
2021/05/26 12:19:51;;;;;;;0.17;0.17;;;19.70;90.00;;;;;;4403819;32;20135;-86
2021/05/26 12:22:21;;;;;;;0.20;0.20;;;19.60;91.10;;;;;;4415830;32;20081;-86
2021/05/26 12:24:53;;;;;;;0.20;0.20;;;20.50;90.50;;;;;;4415575;32;20115;-87
2021/05/26 12:27:46;;;;;;;0.20;0.20;;;20.90;87.60;;;;;;4399309;32;20088;-89
2021/05/26 12:30:19;;;;;;;0.10;0.10;;;21.20;87.20;;;;;;4404598;32;20133;-87
2021/05/26 12:32:47;;;;;;;0.10;0.10;;;21.80;90.50;;;;;;4403126;32;20535;-88
2021/05/26 12:35:25;;;;;;;0.10;0.10;;;22.60;84.00;;;;;;4416477;32;20077;-87
2021/05/26 12:37:54;;;;;;;0.62;0.40;;;21.80;84.30;;;;;;4415585;32;20081;-87
2021/05/26 12:40:26;;;;;;;0.10;0.10;;;21.70;85.40;;;;;;4416401;32;20110;-86
2021/05/26 12:42:54;;;;;;;0.85;0.40;;;22.10;84.40;;;;;;4402159;32;20078;-88
2021/05/26 12:45:26;;;;;;;0.10;0.10;;;21.30;85.30;;;;;;4416741;32;20079;-87
2021/05/26 12:47:53;;;;;;;0.10;0.10;;;21.20;86.60;;;;;;4417749;32;20086;-87
2021/05/26 12:50:23;;;;;;;0.10;0.10;;;21.60;85.20;;;;;;4432849;32;20135;-88
2021/05/26 12:52:51;;;;;;;0.20;0.20;;;21.60;84.70;;;;;;4398069;32;20479;-87